createdAt,value
2022-12-17T00:01:48.657Z,25.66
2022-12-17T00:03:53.133Z,25.7
2022-12-17T00:06:01.693Z,25.7
2022-12-17T00:08:06.024Z,25.7
2022-12-17T00:10:11.445Z,25.7
2022-12-17T00:12:15.776Z,25.69
2022-12-17T00:14:20.133Z,25.7
2022-12-17T00:16:24.571Z,25.69
2022-12-17T00:18:29.272Z,25.68
2022-12-17T00:20:33.646Z,25.65
2022-12-17T00:22:37.992Z,25.65
2022-12-17T00:24:42.334Z,25.65
2022-12-17T00:26:46.709Z,25.66
2022-12-17T00:28:51.056Z,25.66
2022-12-17T00:30:58.507Z,25.64
2022-12-17T00:33:03.229Z,25.64
2022-12-17T00:35:07.666Z,25.64
2022-12-17T00:37:12.321Z,25.63
2022-12-17T00:39:16.682Z,25.62
2022-12-17T00:41:21.086Z,25.61
2022-12-17T00:43:25.500Z,25.58
2022-12-17T00:45:29.858Z,25.58
2022-12-17T00:47:34.230Z,25.57
2022-12-17T00:49:38.573Z,25.54
2022-12-17T00:51:42.945Z,25.52
2022-12-17T00:53:47.276Z,25.51
2022-12-17T00:55:51.639Z,25.51
2022-12-17T00:57:55.987Z,25.51
2022-12-17T01:00:00.510Z,25.52
2022-12-17T01:02:05.130Z,25.5
2022-12-17T01:04:09.944Z,25.52
2022-12-17T01:06:14.289Z,25.52
2022-12-17T01:08:18.640Z,25.51
2022-12-17T01:10:22.964Z,25.49
2022-12-17T01:12:27.345Z,25.47
2022-12-17T01:14:31.794Z,25.46
2022-12-17T01:16:36.166Z,25.44
2022-12-17T01:18:40.818Z,25.43
2022-12-17T01:20:45.145Z,25.39
2022-12-17T01:22:49.502Z,25.39
2022-12-17T01:24:53.936Z,25.37
2022-12-17T01:27:00.547Z,25.36
2022-12-17T01:29:04.883Z,25.36
2022-12-17T01:31:09.310Z,25.35
2022-12-17T01:33:13.930Z,25.37
2022-12-17T01:35:18.351Z,25.36
2022-12-17T01:37:22.694Z,25.33
2022-12-17T01:39:27.103Z,25.35
2022-12-17T01:41:31.481Z,25.35
2022-12-17T01:43:36.091Z,25.31
2022-12-17T01:45:41.260Z,25.3
2022-12-17T01:47:45.834Z,25.3
2022-12-17T01:49:50.151Z,25.28
2022-12-17T01:51:54.530Z,25.28
2022-12-17T01:53:58.868Z,25.27
2022-12-17T01:56:03.198Z,25.27
2022-12-17T01:58:07.556Z,25.27
2022-12-17T02:00:11.912Z,25.24
2022-12-17T02:02:16.454Z,25.26
2022-12-17T02:04:21.379Z,25.23
2022-12-17T02:06:25.732Z,25.24
2022-12-17T02:08:30.107Z,25.24
2022-12-17T02:10:34.473Z,25.23
2022-12-17T02:12:38.827Z,25.22
2022-12-17T02:14:43.225Z,25.18
2022-12-17T02:16:47.704Z,25.16
2022-12-17T02:18:52.307Z,25.15
2022-12-17T02:20:56.660Z,25.16
2022-12-17T02:23:01.008Z,25.13
2022-12-17T02:25:05.351Z,25.11
2022-12-17T02:27:09.723Z,25.1
2022-12-17T02:29:14.129Z,25.12
2022-12-17T02:31:18.622Z,25.09
2022-12-17T02:33:23.199Z,25.09
2022-12-17T02:35:27.561Z,25.07
2022-12-17T02:37:31.902Z,25.05
2022-12-17T02:39:36.218Z,25.05
2022-12-17T02:41:40.622Z,25.06
2022-12-17T02:43:44.984Z,25.04
2022-12-17T02:45:49.380Z,25.02
2022-12-17T02:47:53.988Z,25.03
2022-12-17T02:49:58.347Z,25.01
2022-12-17T02:52:02.706Z,25.03
2022-12-17T02:55:55.215Z,24.99
2022-12-17T02:57:59.518Z,24.99
2022-12-17T03:00:03.854Z,24.98
2022-12-17T03:02:08.389Z,24.98
2022-12-17T03:04:13.346Z,24.96
2022-12-17T03:06:17.702Z,24.96
2022-12-17T03:08:22.065Z,24.93
2022-12-17T03:10:26.509Z,24.95
2022-12-17T03:12:30.857Z,24.93
2022-12-17T03:14:35.261Z,24.92
2022-12-17T03:16:39.612Z,24.93
2022-12-17T03:18:44.080Z,24.92
2022-12-17T03:20:48.443Z,24.9
2022-12-17T03:22:52.827Z,24.91
2022-12-17T03:24:57.179Z,24.9
2022-12-17T03:27:01.540Z,24.89
2022-12-17T03:29:05.852Z,24.87
2022-12-17T03:31:10.276Z,24.85
2022-12-17T03:33:15.021Z,24.85
2022-12-17T03:35:19.358Z,24.86
2022-12-17T03:37:23.811Z,24.85
2022-12-17T03:39:28.188Z,24.83
2022-12-17T03:41:32.526Z,24.82
2022-12-17T03:43:37.208Z,24.81
2022-12-17T03:45:42.155Z,24.8
2022-12-17T03:47:46.703Z,24.81
2022-12-17T03:49:51.063Z,24.8
2022-12-17T03:51:55.382Z,24.82
2022-12-17T03:53:59.739Z,24.81
2022-12-17T03:56:04.080Z,24.81
2022-12-17T03:58:08.425Z,24.81
2022-12-17T04:00:12.799Z,24.8
2022-12-17T04:02:17.302Z,24.77
2022-12-17T04:04:22.430Z,24.77
2022-12-17T04:06:26.760Z,24.77
2022-12-17T04:08:31.085Z,24.78
2022-12-17T04:10:35.437Z,24.75
2022-12-17T04:12:39.863Z,24.74
2022-12-17T04:14:44.181Z,24.74
2022-12-17T04:16:48.540Z,24.74
2022-12-17T04:18:52.885Z,24.75
2022-12-17T04:20:57.223Z,24.75
2022-12-17T04:23:01.578Z,24.73
2022-12-17T04:25:06.002Z,24.74
2022-12-17T04:27:10.397Z,24.74
2022-12-17T04:29:14.731Z,24.72
2022-12-17T04:31:19.125Z,24.71
2022-12-17T04:33:23.861Z,24.7
2022-12-17T04:35:28.189Z,24.7
2022-12-17T04:37:32.542Z,24.69
2022-12-17T04:39:36.907Z,24.7
2022-12-17T04:41:41.341Z,24.7
2022-12-17T04:43:45.694Z,24.68
2022-12-17T04:45:50.089Z,24.69
2022-12-17T04:47:54.588Z,24.69
2022-12-17T04:49:58.952Z,24.69
2022-12-17T04:52:03.301Z,24.68
2022-12-17T04:54:07.653Z,24.69
2022-12-17T04:56:11.977Z,24.66
2022-12-17T04:58:16.312Z,24.66
2022-12-17T05:00:20.651Z,24.64
2022-12-17T05:02:25.093Z,24.63
2022-12-17T05:04:30.107Z,24.63
2022-12-17T05:06:34.479Z,24.62
2022-12-17T05:08:41.506Z,24.62
2022-12-17T05:10:46.090Z,24.63
2022-12-17T05:12:50.478Z,24.63
2022-12-17T05:14:56.427Z,24.61
2022-12-17T05:17:00.785Z,24.61
2022-12-17T05:19:05.151Z,24.62
2022-12-17T05:21:09.492Z,24.63
2022-12-17T05:23:13.866Z,24.64
2022-12-17T05:25:18.227Z,24.63
2022-12-17T05:27:22.589Z,24.64
2022-12-17T05:29:26.917Z,24.66
2022-12-17T05:31:31.378Z,24.63
2022-12-17T05:33:36.280Z,24.63
2022-12-17T05:35:41.853Z,24.62
2022-12-17T05:37:46.232Z,24.61
2022-12-17T05:39:50.727Z,24.61
2022-12-17T05:41:55.058Z,24.6
2022-12-17T05:43:59.410Z,24.59
2022-12-17T05:46:03.790Z,24.59
2022-12-17T05:48:08.324Z,24.61
2022-12-17T05:50:12.726Z,24.62
2022-12-17T05:52:17.043Z,24.61
2022-12-17T05:54:21.419Z,24.6
2022-12-17T05:56:25.745Z,24.59
2022-12-17T05:58:30.088Z,24.59
2022-12-17T06:00:34.424Z,24.58
2022-12-17T06:02:38.834Z,24.54
2022-12-17T06:04:43.578Z,24.52
2022-12-17T06:06:47.931Z,24.54
2022-12-17T06:08:52.269Z,24.54
2022-12-17T06:10:56.647Z,24.53
2022-12-17T06:13:00.995Z,24.53
2022-12-17T06:15:05.318Z,24.52
2022-12-17T06:17:09.682Z,24.53
2022-12-17T06:19:14.251Z,24.52
2022-12-17T06:21:18.607Z,24.5
2022-12-17T06:23:22.936Z,24.49
2022-12-17T06:25:27.303Z,24.48
2022-12-17T06:27:31.672Z,24.49
2022-12-17T06:29:36.025Z,24.47
2022-12-17T06:31:40.456Z,24.48
2022-12-17T06:33:45.059Z,24.47
2022-12-17T06:35:49.419Z,24.48
2022-12-17T06:37:53.937Z,24.48
2022-12-17T06:39:58.294Z,24.47
2022-12-17T06:42:04.425Z,24.46
2022-12-17T06:44:09.178Z,24.46
2022-12-17T06:46:13.595Z,24.45
2022-12-17T06:48:18.203Z,24.44
2022-12-17T06:50:22.576Z,24.43
2022-12-17T06:52:26.924Z,24.42
2022-12-17T06:54:31.301Z,24.41
2022-12-17T06:56:35.671Z,24.39
2022-12-17T06:58:40.005Z,24.38
2022-12-17T07:00:44.377Z,24.39
2022-12-17T07:02:49.136Z,24.39
2022-12-17T07:04:53.973Z,24.38
2022-12-17T07:06:58.337Z,24.36
2022-12-17T07:09:02.694Z,24.35
2022-12-17T07:11:07.059Z,24.34
2022-12-17T07:13:12.723Z,24.32
2022-12-17T07:15:17.081Z,24.31
2022-12-17T07:17:21.456Z,24.3
2022-12-17T07:19:27.533Z,24.28
2022-12-17T07:21:32.147Z,24.27
2022-12-17T07:23:36.905Z,24.28
2022-12-17T07:25:45.932Z,24.26
2022-12-17T07:27:50.579Z,24.25
2022-12-17T07:29:54.965Z,24.25
2022-12-17T07:31:59.336Z,24.26
2022-12-17T07:34:04.017Z,24.25
2022-12-17T07:36:08.342Z,24.24
2022-12-17T07:38:12.690Z,24.19
2022-12-17T07:40:17.093Z,24.13
2022-12-17T07:42:21.440Z,24.09
2022-12-17T07:44:25.777Z,24.03
2022-12-17T07:46:30.159Z,24.01
2022-12-17T07:48:34.521Z,23.98
2022-12-17T07:50:38.869Z,24
2022-12-17T07:52:43.238Z,23.99
2022-12-17T07:54:47.643Z,23.99
2022-12-17T07:56:52.001Z,24
2022-12-17T07:58:56.337Z,23.97
2022-12-17T08:01:00.765Z,23.98
2022-12-17T08:03:05.441Z,23.96
2022-12-17T08:05:10.505Z,23.96
2022-12-17T08:07:14.924Z,23.96
2022-12-17T08:09:19.313Z,23.96
2022-12-17T08:11:23.691Z,23.94
2022-12-17T08:13:28.053Z,23.92
2022-12-17T08:15:32.403Z,23.9
2022-12-17T08:17:36.751Z,23.91
2022-12-17T08:19:41.474Z,23.91
2022-12-17T08:21:45.822Z,23.9
2022-12-17T08:23:50.204Z,23.91
2022-12-17T08:25:54.587Z,23.92
2022-12-17T08:27:58.936Z,23.93
2022-12-17T08:30:04.793Z,23.92
2022-12-17T08:32:09.158Z,23.95
2022-12-17T08:34:13.508Z,23.95
2022-12-17T08:36:17.899Z,23.97
2022-12-17T08:38:22.241Z,23.96
2022-12-17T08:40:26.608Z,23.95
2022-12-17T08:42:30.974Z,23.94
2022-12-17T08:44:35.380Z,23.93
2022-12-17T08:46:39.717Z,23.93
2022-12-17T08:48:44.076Z,23.92
2022-12-17T08:50:48.479Z,23.92
2022-12-17T08:52:52.849Z,23.9
2022-12-17T08:54:57.291Z,23.91
2022-12-17T08:57:01.672Z,23.92
2022-12-17T08:59:06.024Z,23.92
2022-12-17T09:01:10.565Z,23.93
2022-12-17T09:03:15.327Z,23.95
2022-12-17T09:05:19.886Z,23.95
2022-12-17T09:07:24.259Z,23.95
2022-12-17T09:09:28.654Z,23.94
2022-12-17T09:11:33.025Z,23.95
2022-12-17T09:13:37.720Z,23.94
2022-12-17T09:15:42.768Z,23.93
2022-12-17T09:17:47.161Z,23.93
2022-12-17T09:19:51.525Z,23.93
2022-12-17T09:21:55.918Z,23.92
2022-12-17T09:24:00.342Z,23.9
2022-12-17T09:26:04.756Z,23.87
2022-12-17T09:28:09.131Z,23.9
2022-12-17T09:30:13.477Z,23.91
2022-12-17T09:32:17.842Z,23.91
2022-12-17T09:34:22.191Z,23.91
2022-12-17T09:36:26.582Z,23.91
2022-12-17T09:38:30.928Z,23.9
2022-12-17T09:40:35.326Z,23.91
2022-12-17T09:42:39.679Z,23.89
2022-12-17T09:44:53.598Z,23.9
2022-12-17T09:46:57.968Z,23.88
2022-12-17T09:49:02.314Z,23.88
2022-12-17T09:51:06.689Z,23.91
2022-12-17T09:53:11.090Z,23.89
2022-12-17T09:55:15.425Z,23.89
2022-12-17T09:57:19.826Z,23.9
2022-12-17T09:59:24.216Z,23.9
2022-12-17T10:01:28.732Z,23.92
2022-12-17T10:03:33.489Z,23.91
2022-12-17T10:05:39.525Z,23.91
2022-12-17T10:07:43.947Z,23.92
2022-12-17T10:09:48.334Z,23.91
2022-12-17T10:11:52.741Z,23.9
2022-12-17T10:13:57.114Z,23.89
2022-12-17T10:16:01.645Z,23.87
2022-12-17T10:18:06.262Z,23.86
2022-12-17T10:20:10.665Z,23.89
2022-12-17T10:22:15.084Z,23.89
2022-12-17T10:24:19.463Z,23.89
2022-12-17T10:26:23.867Z,23.9
2022-12-17T10:28:28.233Z,23.9
2022-12-17T10:30:32.592Z,23.9
2022-12-17T10:32:36.929Z,23.91
2022-12-17T10:34:41.328Z,23.91
2022-12-17T10:36:45.670Z,23.91
2022-12-17T10:38:50.043Z,23.92
2022-12-17T10:40:54.444Z,23.91
2022-12-17T10:42:58.805Z,23.92
2022-12-17T10:45:03.176Z,23.93
2022-12-17T10:47:07.595Z,23.92
2022-12-17T10:49:12.048Z,23.92
2022-12-17T10:51:16.516Z,23.92
2022-12-17T10:53:20.973Z,23.9
2022-12-17T10:55:25.393Z,23.91
2022-12-17T10:57:29.849Z,23.91
2022-12-17T10:59:34.252Z,23.92
2022-12-17T11:01:38.798Z,23.93
2022-12-17T11:03:43.791Z,23.93
2022-12-17T11:05:48.468Z,23.92
2022-12-17T11:07:56.287Z,23.92
2022-12-17T11:10:05.509Z,23.93
2022-12-17T11:12:13.865Z,23.92
2022-12-17T11:14:18.255Z,23.92
2022-12-17T11:16:22.682Z,23.91
2022-12-17T11:18:27.350Z,23.91
2022-12-17T11:20:31.753Z,23.91
2022-12-17T11:22:36.184Z,23.9
2022-12-17T11:24:40.538Z,23.9
2022-12-17T11:26:44.964Z,23.91
2022-12-17T11:28:49.368Z,23.91
2022-12-17T11:30:53.831Z,23.91
2022-12-17T11:32:58.409Z,23.9
2022-12-17T11:35:02.835Z,23.9
2022-12-17T11:37:07.197Z,23.91
2022-12-17T11:39:11.613Z,23.92
2022-12-17T11:41:15.956Z,23.94
2022-12-17T11:43:20.326Z,23.94
2022-12-17T11:45:24.683Z,23.95
2022-12-17T11:47:29.009Z,23.95
2022-12-17T11:49:33.414Z,23.95
2022-12-17T11:51:37.748Z,23.94
2022-12-17T11:53:42.121Z,23.94
2022-12-17T11:55:46.525Z,23.94
2022-12-17T11:57:50.857Z,23.93
2022-12-17T11:59:59.490Z,23.93
2022-12-17T12:02:08.106Z,23.94
2022-12-17T12:04:12.487Z,23.91
2022-12-17T12:06:17.175Z,23.9
2022-12-17T12:08:21.663Z,23.9
2022-12-17T12:10:26.036Z,23.88
2022-12-17T12:12:30.433Z,23.92
2022-12-17T12:14:34.800Z,23.92
2022-12-17T12:16:43.470Z,23.93
2022-12-17T12:18:48.357Z,23.94
2022-12-17T12:20:52.739Z,23.97
2022-12-17T12:22:57.099Z,23.95
2022-12-17T12:25:01.507Z,23.95
2022-12-17T12:27:05.888Z,23.99
2022-12-17T12:29:10.302Z,24
2022-12-17T12:31:14.700Z,24.03
2022-12-17T12:33:19.289Z,24.05
2022-12-17T12:35:23.680Z,24.04
2022-12-17T12:37:28.059Z,24.05
2022-12-17T12:39:32.453Z,24.07
2022-12-17T12:41:36.837Z,24.09
2022-12-17T12:43:41.225Z,24.11
2022-12-17T12:45:45.649Z,24.13
2022-12-17T12:47:50.267Z,24.15
2022-12-17T12:49:54.714Z,24.16
2022-12-17T12:51:59.075Z,24.16
2022-12-17T12:54:03.454Z,24.18
2022-12-17T12:56:07.847Z,24.19
2022-12-17T12:58:12.204Z,24.2
2022-12-17T13:00:16.672Z,24.2
2022-12-17T13:02:21.186Z,24.2
2022-12-17T13:04:26.134Z,24.21
2022-12-17T13:06:30.532Z,24.22
2022-12-17T13:08:35.150Z,24.22
2022-12-17T13:10:41.039Z,24.22
2022-12-17T13:12:45.418Z,24.21
2022-12-17T13:14:49.784Z,24.25
2022-12-17T13:16:54.223Z,24.25
2022-12-17T13:18:58.839Z,24.25
2022-12-17T13:21:03.200Z,24.27
2022-12-17T13:23:07.572Z,24.3
2022-12-17T13:25:11.915Z,24.29
2022-12-17T13:27:16.280Z,24.28
2022-12-17T13:29:20.742Z,24.3
2022-12-17T13:31:25.351Z,24.31
2022-12-17T13:33:29.946Z,24.31
2022-12-17T13:35:34.299Z,24.32
2022-12-17T13:37:38.699Z,24.33
2022-12-17T13:39:43.094Z,24.32
2022-12-17T13:41:47.448Z,24.34
2022-12-17T13:43:51.830Z,24.33
2022-12-17T13:45:56.357Z,24.34
2022-12-17T13:48:02.322Z,24.35
2022-12-17T13:50:37.004Z,24.35
2022-12-17T13:52:41.592Z,24.36
2022-12-17T13:54:45.993Z,24.38
2022-12-17T13:56:50.391Z,24.38
2022-12-17T13:58:54.743Z,24.4
2022-12-17T14:00:59.276Z,24.38
2022-12-17T14:03:03.967Z,24.39
2022-12-17T14:05:08.576Z,24.38
2022-12-17T14:07:12.983Z,24.39
2022-12-17T14:09:17.344Z,24.4
2022-12-17T14:11:21.715Z,24.39
2022-12-17T14:13:26.033Z,24.37
2022-12-17T14:15:30.425Z,24.38
2022-12-17T14:17:34.791Z,24.4
2022-12-17T14:19:39.216Z,24.4
2022-12-17T14:21:43.577Z,24.41
2022-12-17T14:23:47.953Z,24.42
2022-12-17T14:25:52.391Z,24.42
2022-12-17T14:27:56.727Z,24.45
2022-12-17T14:30:01.080Z,24.42
2022-12-17T14:32:05.603Z,24.42
2022-12-17T14:34:10.259Z,24.45
2022-12-17T14:36:15.648Z,24.44
2022-12-17T14:38:36.860Z,24.44
2022-12-17T14:40:52.326Z,24.46
2022-12-17T14:42:56.750Z,24.47
2022-12-17T14:45:01.294Z,24.46
2022-12-17T14:47:05.639Z,24.46
2022-12-17T14:49:09.980Z,24.46
2022-12-17T14:51:14.354Z,24.49
2022-12-17T14:53:18.711Z,24.51
2022-12-17T14:55:23.135Z,24.51
2022-12-17T14:57:27.576Z,24.51
2022-12-17T14:59:31.979Z,24.48
2022-12-17T15:01:36.498Z,24.43
2022-12-17T15:03:41.588Z,24.4
2022-12-17T15:05:46.456Z,24.45
2022-12-17T15:07:50.871Z,24.46
2022-12-17T15:09:55.267Z,24.49
2022-12-17T15:11:59.627Z,24.47
2022-12-17T15:14:04.023Z,24.39
2022-12-17T15:16:08.367Z,24.34
2022-12-17T15:18:12.829Z,24.31
2022-12-17T15:20:17.222Z,24.3
2022-12-17T15:22:21.581Z,24.3
2022-12-17T15:24:26.008Z,24.31
2022-12-17T15:26:30.341Z,24.34
2022-12-17T15:28:35.092Z,24.37
2022-12-17T15:30:40.944Z,24.36
2022-12-17T15:32:45.601Z,24.37
2022-12-17T15:34:50.009Z,24.36
2022-12-17T15:36:54.367Z,24.35
2022-12-17T15:38:58.713Z,24.37
2022-12-17T15:41:03.118Z,24.39
2022-12-17T15:43:07.487Z,24.4
2022-12-17T15:45:11.858Z,24.38
2022-12-17T15:47:16.243Z,24.42
2022-12-17T15:49:20.592Z,24.46
2022-12-17T15:51:24.961Z,24.49
2022-12-17T15:53:29.361Z,24.49
2022-12-17T15:55:33.775Z,24.4
2022-12-17T15:57:38.129Z,24.5
2022-12-17T15:59:42.499Z,24.52
2022-12-17T16:01:47.035Z,24.48
2022-12-17T16:03:51.952Z,24.47
2022-12-17T16:05:56.661Z,24.5
2022-12-17T16:08:01.006Z,24.52
2022-12-17T16:10:05.793Z,24.56
2022-12-17T16:12:10.449Z,24.57
2022-12-17T16:14:14.859Z,24.59
2022-12-17T16:16:19.320Z,24.63
2022-12-17T16:18:23.904Z,24.61
2022-12-17T16:20:28.276Z,24.63
2022-12-17T16:22:32.625Z,24.65
2022-12-17T16:24:36.975Z,24.66
2022-12-17T16:26:41.363Z,24.68
2022-12-17T16:28:45.694Z,24.68
2022-12-17T16:30:50.127Z,24.7
2022-12-17T16:32:54.805Z,24.75
2022-12-17T16:34:59.165Z,24.81
2022-12-17T16:37:03.550Z,24.86
2022-12-17T16:39:07.909Z,24.92
2022-12-17T16:41:12.351Z,24.95
2022-12-17T16:43:16.706Z,24.99
2022-12-17T16:45:21.057Z,25.03
2022-12-17T16:47:25.420Z,25.08
2022-12-17T16:49:29.756Z,25.13
2022-12-17T16:51:34.179Z,25.18
2022-12-17T16:53:38.582Z,25.14
2022-12-17T16:55:42.931Z,25.18
2022-12-17T16:57:47.355Z,25.15
2022-12-17T16:59:51.741Z,25.15
2022-12-17T17:01:56.250Z,25.14
2022-12-17T17:04:01.283Z,25.12
2022-12-17T17:06:06.027Z,25.08
2022-12-17T17:08:10.418Z,25.1
2022-12-17T17:10:14.819Z,25.12
2022-12-17T17:12:19.198Z,25.12
2022-12-17T17:14:23.583Z,25.17
2022-12-17T17:16:28.092Z,25.18
2022-12-17T17:18:32.759Z,25.13
2022-12-17T17:20:37.246Z,25.04
2022-12-17T17:22:41.584Z,25.03
2022-12-17T17:24:45.975Z,25.06
2022-12-17T17:26:50.360Z,25.12
2022-12-17T17:28:54.832Z,25.19
2022-12-17T17:30:59.251Z,25.23
2022-12-17T17:33:03.865Z,25.24
2022-12-17T17:35:08.183Z,25.27
2022-12-17T17:37:12.581Z,25.26
2022-12-17T17:39:16.964Z,25.28
2022-12-17T17:41:21.325Z,25.27
2022-12-17T17:43:25.706Z,25.26
2022-12-17T17:45:30.096Z,25.24
2022-12-17T17:47:34.487Z,25.25
2022-12-17T17:49:39.001Z,25.27
2022-12-17T17:54:17.897Z,25.28
2022-12-17T17:56:22.333Z,25.3
2022-12-17T17:58:26.774Z,25.31
2022-12-17T18:00:31.159Z,25.34
2022-12-17T18:02:35.818Z,25.36
2022-12-17T18:04:40.887Z,25.36
2022-12-17T18:07:02.472Z,25.37
2022-12-17T18:09:30.923Z,25.38
2022-12-17T18:11:35.306Z,25.39
2022-12-17T18:13:39.659Z,25.41
2022-12-17T18:15:44.092Z,25.42
2022-12-17T18:17:48.715Z,25.43
2022-12-17T18:19:53.124Z,25.43
2022-12-17T18:21:57.501Z,25.41
2022-12-17T18:24:01.884Z,25.38
2022-12-17T18:26:06.275Z,25.37
2022-12-17T18:28:10.683Z,25.39
2022-12-17T18:30:15.065Z,25.4
2022-12-17T18:32:19.428Z,25.37
2022-12-17T18:34:23.920Z,25.39
2022-12-17T18:36:28.611Z,25.36
2022-12-17T18:38:32.965Z,25.34
2022-12-17T18:40:38.231Z,25.36
2022-12-17T18:42:42.721Z,25.37
2022-12-17T18:44:47.157Z,25.36
2022-12-17T18:46:51.556Z,25.37
2022-12-17T18:48:57.379Z,25.39
2022-12-17T18:51:02.920Z,25.37
2022-12-17T18:53:07.455Z,25.34
2022-12-17T18:55:11.864Z,25.33
2022-12-17T18:57:16.303Z,25.34
2022-12-17T18:59:24.274Z,25.32
2022-12-17T19:01:33.003Z,25.33
2022-12-17T19:03:38.051Z,25.32
2022-12-17T19:05:45.924Z,25.36
2022-12-17T19:07:57.573Z,25.41
2022-12-17T19:10:02.073Z,25.43
2022-12-17T19:12:06.491Z,25.42
2022-12-17T19:14:10.916Z,25.44
2022-12-17T19:16:16.484Z,25.43
2022-12-17T19:18:21.270Z,25.4
2022-12-17T19:20:25.705Z,25.44
2022-12-17T19:22:30.068Z,25.47
2022-12-17T19:24:34.533Z,25.49
2022-12-17T19:26:38.932Z,25.5
2022-12-17T19:28:43.364Z,25.54
2022-12-17T19:30:47.906Z,25.55
2022-12-17T19:32:52.298Z,25.55
2022-12-17T19:34:56.652Z,25.49
2022-12-17T19:37:01.072Z,25.46
2022-12-17T19:39:05.500Z,25.48
2022-12-17T19:41:09.926Z,25.52
2022-12-17T19:43:14.317Z,25.5
2022-12-17T19:45:18.724Z,25.44
2022-12-17T19:47:23.089Z,25.43
2022-12-17T19:49:27.483Z,25.44
2022-12-17T19:51:32.338Z,25.43
2022-12-17T19:53:36.904Z,25.37
2022-12-17T19:55:41.305Z,25.38
2022-12-17T19:57:45.765Z,25.34
2022-12-17T19:59:50.470Z,25.33
2022-12-17T20:01:55.118Z,25.34
2022-12-17T20:04:00.129Z,25.35
2022-12-17T20:06:04.614Z,25.39
2022-12-17T20:08:09.036Z,25.32
2022-12-17T20:10:13.425Z,25.32
2022-12-17T20:12:17.962Z,25.36
2022-12-17T20:14:22.336Z,25.37
2022-12-17T20:16:26.838Z,25.38
2022-12-17T20:18:32.411Z,25.4
2022-12-17T20:20:37.005Z,25.45
2022-12-17T20:22:41.418Z,25.49
2022-12-17T20:24:45.852Z,25.48
2022-12-17T20:26:50.248Z,25.48
2022-12-17T20:28:54.716Z,25.5
2022-12-17T20:30:59.282Z,25.52
2022-12-17T20:33:03.735Z,25.47
2022-12-17T20:35:08.092Z,25.45
2022-12-17T20:37:12.634Z,25.45
2022-12-17T20:39:19.716Z,25.5
2022-12-17T20:41:31.202Z,25.46
2022-12-17T20:43:35.696Z,25.52
2022-12-17T20:45:40.601Z,25.56
2022-12-17T20:47:45.620Z,25.59
2022-12-17T20:49:50.394Z,25.61
2022-12-17T20:52:00.767Z,25.63
2022-12-17T20:54:09.841Z,25.67
2022-12-17T20:56:14.908Z,25.66
2022-12-17T20:58:19.372Z,25.71
2022-12-17T21:00:23.823Z,25.74
2022-12-17T21:02:28.515Z,25.76
2022-12-17T21:04:33.887Z,25.78
2022-12-17T21:06:38.313Z,25.79
2022-12-17T21:08:47.828Z,25.74
2022-12-17T21:10:55.203Z,25.69
2022-12-17T21:12:59.653Z,25.75
2022-12-17T21:15:04.088Z,25.75
2022-12-17T21:17:08.693Z,25.72
2022-12-17T21:19:13.618Z,25.75
2022-12-17T21:21:18.829Z,25.77
2022-12-17T21:23:23.340Z,25.79
2022-12-17T21:25:29.212Z,25.79
2022-12-17T21:27:33.756Z,25.81
2022-12-17T21:29:38.291Z,25.83
2022-12-17T21:31:42.819Z,25.85
2022-12-17T21:33:48.038Z,25.84
2022-12-17T21:35:53.782Z,25.83
2022-12-17T21:37:58.445Z,25.85
2022-12-17T21:40:02.853Z,25.85
2022-12-17T21:42:07.275Z,25.89
2022-12-17T21:44:12.101Z,25.89
2022-12-17T21:46:19.509Z,25.9
2022-12-17T21:48:25.585Z,25.87
2022-12-17T21:50:30.054Z,25.88
2022-12-17T21:52:35.030Z,25.91
2022-12-17T21:54:40.162Z,25.91
2022-12-17T21:56:45.218Z,25.91
2022-12-17T21:58:49.617Z,25.89
2022-12-17T22:00:54.092Z,25.88
2022-12-17T22:02:59.041Z,25.89
2022-12-17T22:05:03.872Z,25.84
2022-12-17T22:07:11.873Z,25.88
2022-12-17T22:09:45.919Z,25.89
2022-12-17T22:12:54.721Z,25.91
2022-12-17T22:14:59.894Z,25.89
2022-12-17T22:17:05.958Z,25.88
2022-12-17T22:19:10.351Z,25.89
2022-12-17T22:21:14.854Z,25.89
2022-12-17T22:23:19.246Z,25.89
2022-12-17T22:25:24.800Z,25.88
2022-12-17T22:27:29.563Z,25.85
2022-12-17T22:29:33.990Z,25.8
2022-12-17T22:31:38.475Z,25.78
2022-12-17T22:33:54.499Z,25.78
2022-12-17T22:44:40.369Z,25.43
2022-12-17T22:47:03.069Z,25.51
2022-12-17T22:49:07.533Z,25.56
2022-12-17T22:51:14.357Z,25.55
2022-12-17T22:53:44.494Z,25.57
2022-12-17T22:55:49.762Z,25.62
2022-12-17T22:57:54.434Z,25.65
2022-12-17T22:59:58.811Z,25.68
2022-12-17T23:02:03.260Z,25.68
2022-12-17T23:04:08.065Z,25.67
2022-12-17T23:06:12.674Z,25.7
2022-12-17T23:08:17.053Z,25.74
2022-12-17T23:10:21.407Z,25.76
2022-12-17T23:12:25.802Z,25.7
2022-12-17T23:14:30.264Z,25.68
2022-12-17T23:16:34.718Z,25.71
2022-12-17T23:18:39.340Z,25.7
2022-12-17T23:20:43.715Z,25.7
2022-12-17T23:22:48.056Z,25.66
2022-12-17T23:24:52.468Z,25.66
2022-12-17T23:26:56.858Z,25.65
2022-12-17T23:29:01.268Z,25.67
2022-12-17T23:31:07.035Z,25.66
2022-12-17T23:33:11.644Z,25.64
2022-12-17T23:35:16.028Z,25.66
2022-12-17T23:37:20.430Z,25.66
2022-12-17T23:39:24.836Z,25.66
2022-12-17T23:41:29.546Z,25.68
2022-12-17T23:43:33.924Z,25.66
2022-12-17T23:45:38.712Z,25.64
2022-12-17T23:47:43.093Z,25.68
2022-12-17T23:49:47.487Z,25.7
2022-12-17T23:51:51.841Z,25.74
2022-12-17T23:53:56.222Z,25.74
2022-12-17T23:56:00.624Z,25.75
2022-12-17T23:58:05.043Z,25.75
